• Join FlightAware (Why Join?)
  • Login
  • US Flag 
05:07AM EDT


 

Airport Tracker/Info


-or-


 

Live Flight TrackerFlight Track Log ✈ EGF3418 ✈ 20-Apr-2013 ✈ KDFW - KAMA

Flight Track Log - Related Links

Times and Time Zones

All times are in EDT time to prevent confusion due to time zone crossing. See the EGF3418 flight status page for this flight to view local times or setup timezone preferences in your user account.

Time Position Orientation Groundspeed Altitude Reporting Facility
EDT Latitude Longitude Course Direction KTS MPH feet Rate Location/Type
04:04PM 32.8667 -97.0500 308° West 180 207 2,400  Level Dallas / Fort Worth TRACON
04:05PM 32.7597 -97.1237 220° Southwest  Level FlightAware Approximate
04:05PM 32.8000 -97.0667 192° South 205 236 6,000  Level Dallas / Fort Worth TRACON
04:06PM 32.7643 -97.2192 281° West  Level FlightAware Approximate
04:06PM 32.7667 -97.1333 239° Southwest 266 306 8,000  Level Dallas / Fort Worth TRACON
04:07PM 32.8109 -97.3041 307° West  Level FlightAware Approximate
04:07PM 32.7686 -97.2281 271° West 270 311 10,300  Level Fort Worth Center
04:08PM 32.8629 -97.3859 308° West  Level FlightAware Approximate
04:08PM 32.8186 -97.3194 303° West 313 360 11,500  Level Fort Worth Center
04:09PM 32.9165 -97.4664 308° West  Level FlightAware Approximate
04:09PM 32.8792 -97.4086 309° West 333 383 12,800  Level Fort Worth Center
04:10PM 32.9397 -97.5050 307° West 353 406 14,400 1,500 Climbing Fort Worth Center
04:11PM 32.9961 -97.5867 309° West 353 406 15,900 1,440 Climbing Fort Worth Center
04:12PM 33.0544 -97.6786 307° West 353 406 17,300 1,380 Climbing Fort Worth Center
04:13PM 33.1083 -97.7881 300° West 353 406 18,700 1,260 Climbing Fort Worth Center
04:14PM 33.1372 -97.8847 290° West 347 399 19,900 1,320 Climbing Fort Worth Center
04:15PM 33.1764 -98.0067 291° West 347 399 21,400 1,380 Climbing Fort Worth Center
04:16PM 33.2092 -98.1111 291° West 347 399 22,700 1,320 Climbing Fort Worth Center
04:17PM 33.2461 -98.2233 292° West 352 405 24,100 1,380 Climbing Fort Worth Center
04:18PM 33.2767 -98.3253 290° West 347 399 25,500 1,380 Climbing Fort Worth Center
04:19PM 33.3072 -98.4275 290° West 335 386 26,900 1,200 Climbing Fort Worth Center
04:20PM 33.3378 -98.5297 290° West 330 380 27,900 1,020 Climbing Fort Worth Center
04:21PM 33.3742 -98.6347 293° West 330 380 29,000 1,080 Climbing Fort Worth Center
04:22PM 33.4025 -98.7347 289° West 335 386 30,100 1,080 Climbing Fort Worth Center
04:23PM 33.4347 -98.8422 290° West 335 386 31,200 900 Climbing Fort Worth Center
04:24PM 33.4689 -98.9475 291° West 335 386 32,000 360 Climbing Fort Worth Center
04:25PM 33.5261 -99.0481 304° West 346 398 32,000  Level Fort Worth Center
04:26PM 33.5894 -99.1439 308° West 360 414 32,000  Level Fort Worth Center
04:27PM 33.6550 -99.2425 309° West 373 429 32,000  Level Fort Worth Center
04:28PM 33.7181 -99.3364 309° West 373 429 32,000  Level Fort Worth Center
04:29PM 33.7792 -99.4328 307° West 368 423 32,000  Level Fort Worth Center
04:30PM 33.8444 -99.5292 309° West 373 429 32,000  Level Fort Worth Center
04:31PM 33.9075 -99.6283 307° West 373 429 32,000  Level Fort Worth Center
04:32PM 33.9725 -99.7250 309° West 373 429 32,000  Level Fort Worth Center
04:33PM 34.0353 -99.8244 307° West 373 429 32,000  Level Fort Worth Center
04:34PM 34.0981 -99.9267 307° West 373 429 32,000  Level Fort Worth Center
04:36PM 34.2367 -100.1369 309° West 375 432 32,000  Level Albuquerque Center
04:37PM 34.3008 -100.2361 308° West 375 432 32,000  Level Albuquerque Center
04:38PM 34.3650 -100.3383 307° West 379 436 32,000  Level Albuquerque Center
04:39PM 34.4294 -100.4383 308° West 379 436 32,000  Level Albuquerque Center
04:40PM 34.4939 -100.5400 308° West 380 437 32,000 -780 Level Albuquerque Center
04:41PM 34.5708 -100.6600 308° West 378 435 30,400 -2,400 Descending Albuquerque Center
04:42PM 34.6331 -100.7606 307° West 374 430 27,100 -3,360 Descending Albuquerque Center
04:43PM 34.6969 -100.8631 307° West 379 436 23,600 -3,420 Descending Albuquerque Center
04:44PM 34.7614 -100.9656 307° West 381 438 20,200 -3,360 Descending Albuquerque Center
04:45PM 34.8228 -101.0650 307° West 376 433 16,700 -3,420 Descending Albuquerque Center
04:46PM 34.8836 -101.1547 310° West 360 414 13,300 -2,880 Descending Albuquerque Center
04:47PM 34.9517 -101.2392 315° West 351 404 10,800 -2,040 Descending Albuquerque Center
04:48PM 35.0197 -101.3264 314° West 316 364 9,100 -1,620 Descending Albuquerque Center
04:49PM 35.0744 -101.3956 314° West 297 342 7,500 -1,320 Descending Albuquerque Center
04:50PM 35.1256 -101.4631 313° West 283 326 6,400 -840 Descending Albuquerque Center
04:51PM 35.1739 -101.5322 311° West 275 316 5,800 -540 Descending Albuquerque Center
04:52PM 35.2200 -101.5983 311° West 267 307 5,300 -600 Descending Albuquerque Center
04:53PM 35.2503 -101.6503 306° West 223 257 4,600 -840 Descending Albuquerque Center
04:54PM 35.2300 -101.7019 244° Southwest 181 208 3,700 -900 Descending Albuquerque Center
04:56PM 35.2167 -101.7000 321° Northwest  Level FlightAware Approximate